Time;durP1;ratioP1;P1;durP2;ratioP2;P2;SDS_P1;SDS_P2;PMS_P1;PMS_P2;Temp;Humidity;BMP_temperature;BMP_pressure;BME280_temperature;BME280_humidity;BME280_pressure;Samples;Min_cycle;Max_cycle;Signal;HPM_P1;HPM_P2
2023/10/08 00:04:50;;;;;;;16.55;10.20;;;;;;;9.42;70.86;98067.78;10450661;28;20063;-50
2023/10/08 00:09:52;;;;;;;16.40;10.05;;;;;;;9.38;70.29;98053.06;10450255;28;20070;-49
2023/10/08 00:14:53;;;;;;;18.88;10.30;;;;;;;9.39;71.31;98053.94;10455830;28;20072;-50
2023/10/08 00:19:52;;;;;;;16.70;9.93;;;;;;;9.11;70.66;98001.88;10458061;28;20486;-48
2023/10/08 00:24:57;;;;;;;14.93;9.32;;;;;;;9.38;71.52;98045.31;10456176;28;20462;-49
2023/10/08 00:29:57;;;;;;;16.10;9.80;;;;;;;9.27;71.77;98021.84;10453956;28;20376;-51
2023/10/08 00:34:56;;;;;;;17.20;9.05;;;;;;;9.34;72.19;98039.22;10454695;28;20079;-50
2023/10/08 00:39:56;;;;;;;15.48;9.35;;;;;;;9.20;72.97;98045.97;10453965;28;20035;-48
2023/10/08 00:44:56;;;;;;;14.38;8.98;;;;;;;9.14;72.48;98040.75;10444510;28;20455;-48
2023/10/08 00:50:04;;;;;;;18.70;9.50;;;;;;;9.10;71.90;98031.22;10451978;28;20051;-49
2023/10/08 01:00:06;;;;;;;19.02;8.23;;;;;;;8.42;71.94;98035.66;10452879;28;20553;-50
2023/10/08 01:05:09;;;;;;;14.45;8.20;;;;;;;8.23;71.99;98050.09;10453071;28;20210;-51
2023/10/08 01:10:10;;;;;;;15.10;8.43;;;;;;;7.89;72.34;98041.00;10453672;28;20573;-48
2023/10/08 01:15:28;;;;;;;16.85;7.90;;;;;;;7.94;72.46;98041.06;10452173;28;20067;-49
2023/10/08 01:20:33;;;;;;;14.85;8.85;;;;;;;7.98;72.40;98038.53;10452614;28;20056;-48
2023/10/08 01:25:34;;;;;;;16.30;9.25;;;;;;;8.00;72.03;98042.03;10450950;28;20060;-48
2023/10/08 01:30:41;;;;;;;15.40;8.90;;;;;;;8.06;72.02;98034.34;10452017;28;20063;-48
2023/10/08 01:35:41;;;;;;;14.82;9.02;;;;;;;8.12;72.14;98027.53;10451731;28;20060;-50
2023/10/08 01:40:41;;;;;;;18.05;9.68;;;;;;;8.17;72.13;98021.56;10451318;28;20107;-49
2023/10/08 01:45:40;;;;;;;14.20;8.50;;;;;;;8.14;72.42;98025.84;10436726;28;20067;-49
2023/10/08 01:50:39;;;;;;;14.13;8.32;;;;;;;8.08;72.74;98004.25;10409615;28;20056;-48
2023/10/08 01:55:52;;;;;;;15.43;7.75;;;;;;;8.19;72.70;98011.25;10409711;28;20040;-48
2023/10/08 02:00:52;;;;;;;14.48;8.40;;;;;;;8.07;72.27;97996.44;10450870;28;20055;-48
2023/10/08 02:05:53;;;;;;;17.55;10.02;;;;;;;8.23;72.42;98010.44;10450658;28;20074;-49
2023/10/08 02:10:52;;;;;;;16.08;9.50;;;;;;;8.12;72.89;97984.44;10448658;28;20078;-49
2023/10/08 02:15:51;;;;;;;15.02;9.43;;;;;;;8.30;72.64;98007.94;10409826;28;20071;-49
2023/10/08 02:20:51;;;;;;;;;;;;;;;8.30;72.63;98012.25;10409107;28;20334;-49
2023/10/08 02:25:49;;;;;;;16.58;8.82;;;;;;;8.28;73.13;98009.63;10408264;28;20231;-49
2023/10/08 02:30:48;;;;;;;16.02;8.82;;;;;;;8.27;72.83;98015.66;10408329;28;20145;-48
2023/10/08 02:35:49;;;;;;;13.05;8.38;;;;;;;8.32;72.79;98004.50;10408292;28;20496;-48
2023/10/08 02:40:48;;;;;;;17.90;9.07;;;;;;;8.24;73.16;98001.81;10448236;28;20044;-49
2023/10/08 02:45:50;;;;;;;18.10;8.50;;;;;;;7.63;72.77;97889.09;10430695;28;20071;-49
2023/10/08 02:50:49;;;;;;;18.02;9.35;;;;;;;8.25;72.36;98003.56;10447230;28;20074;-48
2023/10/08 02:55:48;;;;;;;16.40;9.25;;;;;;;8.21;72.17;97987.16;10448869;28;20062;-48
2023/10/08 03:00:48;;;;;;;22.10;9.93;;;;;;;8.13;72.43;97987.91;10449361;28;20039;-50
2023/10/08 03:05:49;;;;;;;14.27;7.85;;;;;;;8.10;71.85;97988.72;10405442;28;20060;-48
2023/10/08 03:10:55;;;;;;;14.32;8.40;;;;;;;7.80;71.22;97976.28;10448090;28;20111;-51
2023/10/08 03:21:19;;;;;;;16.05;8.77;;;;;;;7.24;72.00;97990.94;10447910;28;20052;-49
2023/10/08 03:31:49;;;;;;;18.90;9.55;;;;;;;7.11;72.36;97981.25;10447351;28;20080;-46
2023/10/08 03:36:50;;;;;;;17.50;9.20;;;;;;;7.17;72.81;97977.88;10448576;28;20115;-50
2023/10/08 03:42:06;;;;;;;17.52;9.82;;;;;;;7.16;72.97;97987.34;10446962;28;20111;-49
2023/10/08 03:47:10;;;;;;;14.80;9.57;;;;;;;7.22;73.25;97961.66;10419349;28;20111;-48
2023/10/08 03:52:10;;;;;;;16.38;10.32;;;;;;;6.89;75.27;97961.09;10405960;28;20087;-49
2023/10/08 03:57:41;;;;;;;21.25;11.00;;;;;;;7.02;74.00;97975.94;10404184;28;20079;-47
2023/10/08 04:02:40;;;;;;;19.50;11.90;;;;;;;6.86;74.81;97943.84;10405418;28;20052;-50
2023/10/08 04:12:58;;;;;;;25.48;12.23;;;;;;;6.96;74.78;97944.88;10447116;28;20514;-47
2023/10/08 04:17:57;;;;;;;17.02;10.52;;;;;;;7.08;75.52;97959.69;10446652;28;20115;-47
2023/10/08 04:22:59;;;;;;;19.33;10.48;;;;;;;7.03;74.66;97939.84;10447099;28;20054;-47
2023/10/08 04:27:59;;;;;;;21.60;11.88;;;;;;;6.98;73.95;97938.03;10450263;28;20466;-47
2023/10/08 04:33:12;;;;;;;16.80;9.02;;;;;;;7.03;73.23;97959.63;10449455;28;20071;-48
2023/10/08 04:38:11;;;;;;;19.75;8.63;;;;;;;6.87;73.08;97953.34;10449155;28;20051;-51
2023/10/08 04:43:10;;;;;;;16.52;9.90;;;;;;;6.55;73.40;97917.53;10449700;28;20019;-49
2023/10/08 04:48:09;;;;;;;17.35;9.25;;;;;;;6.77;73.75;97954.91;10410161;28;20138;-48
2023/10/08 04:53:08;;;;;;;;;;;;;;;6.82;74.20;97953.28;10408380;28;20052;-47
2023/10/08 04:58:19;;;;;;;20.90;12.50;;;;;;;6.85;74.15;97951.59;10408929;28;19959;-48
2023/10/08 05:03:20;;;;;;;19.33;12.00;;;;;;;6.89;74.40;97955.94;10415398;28;20511;-49
2023/10/08 05:08:28;;;;;;;19.98;12.27;;;;;;;7.02;75.29;97950.13;10414369;28;20067;-50
2023/10/08 05:13:32;;;;;;;17.25;10.35;;;;;;;7.17;74.74;97960.72;10414753;28;20074;-50
2023/10/08 05:29:39;;;;;;;20.92;10.98;;;;;;;7.71;73.12;97958.97;10453011;28;20059;-48
2023/10/08 05:34:42;;;;;;;23.27;10.50;;;;;;;7.59;72.50;97964.81;10451637;28;20499;-48
2023/10/08 05:39:54;;;;;;;18.30;11.02;;;;;;;7.61;72.51;97939.84;10449715;28;20528;-51
2023/10/08 05:55:27;;;;;;;36.20;19.27;;;;;;;8.44;72.18;97964.16;10450663;28;20060;-49
2023/10/08 06:05:43;;;;;;;20.63;10.55;;;;;;;9.04;69.85;97966.44;10448847;28;20063;-50
2023/10/08 06:10:43;;;;;;;18.15;11.10;;;;;;;9.29;68.19;97963.22;10449659;28;20107;-50
2023/10/08 06:21:00;;;;;;;32.40;16.88;;;;;;;9.61;68.24;97960.00;10451064;28;20063;-50
2023/10/08 06:31:16;;;;;;;39.53;19.90;;;;;;;10.25;67.19;97945.59;10450133;28;20471;-50
2023/10/08 06:36:15;;;;;;;24.58;14.02;;;;;;;10.46;65.95;97934.41;10448774;28;20114;-50
2023/10/08 06:41:17;;;;;;;19.83;13.63;;;;;;;10.90;64.81;97944.91;10449733;28;20070;-50
2023/10/08 06:46:21;;;;;;;23.88;13.70;;;;;;;11.14;62.97;97936.22;10428063;28;20067;-50
2023/10/08 06:51:21;;;;;;;22.15;14.35;;;;;;;11.33;61.99;97933.63;10407243;28;20471;-48
2023/10/08 06:56:20;;;;;;;25.83;14.80;;;;;;;11.61;61.13;97940.50;10407484;28;20692;-48
2023/10/08 07:01:24;;;;;;;22.95;13.73;;;;;;;11.89;59.76;97915.28;10406958;28;20483;-48
2023/10/08 07:06:26;;;;;;;33.13;16.83;;;;;;;12.09;59.70;97894.41;10406061;28;20075;-47
2023/10/08 07:11:29;;;;;;;27.48;16.30;;;;;;;12.42;59.10;97896.88;10406921;28;20056;-48
2023/10/08 07:16:28;;;;;;;33.50;17.50;;;;;;;12.70;58.14;97910.56;10406263;28;20523;-48
2023/10/08 07:21:38;;;;;;;31.23;19.77;;;;;;;13.09;57.33;97898.09;10406304;28;20459;-50
2023/10/08 07:26:37;;;;;;;32.90;20.13;;;;;;;13.37;56.32;97893.47;10450823;28;20063;-48
2023/10/08 07:31:41;;;;;;;32.33;18.10;;;;;;;13.68;55.06;97893.19;10450896;28;20055;-48
2023/10/08 07:36:40;;;;;;;31.67;17.05;;;;;;;13.95;53.71;97903.31;10450287;28;20063;-48
2023/10/08 07:41:39;;;;;;;;;;;;;;;14.35;54.16;97881.91;10410923;28;20024;-49
2023/10/08 07:46:37;;;;;;;28.55;15.40;;;;;;;14.66;53.30;97868.38;10432848;28;20005;-49
2023/10/08 07:51:37;;;;;;;;;;;;;;;15.06;52.89;97849.50;10451067;28;20670;-49
2023/10/08 07:56:39;;;;;;;17.83;12.00;;;;;;;15.42;51.18;97844.50;10450469;28;20387;-50
2023/10/08 08:01:38;;;;;;;18.33;11.65;;;;;;;15.78;49.52;97835.03;10450699;28;20047;-51
2023/10/08 08:06:38;;;;;;;30.08;14.05;;;;;;;16.17;48.82;97823.78;10449818;28;20550;-49
2023/10/08 08:11:37;;;;;;;23.55;13.48;;;;;;;16.49;48.26;97823.91;10444916;28;20071;-49
2023/10/08 08:16:37;;;;;;;24.73;13.95;;;;;;;16.83;46.56;97817.00;10408908;28;20055;-48
2023/10/08 08:21:36;;;;;;;20.77;12.82;;;;;;;17.31;45.79;97816.66;10408893;28;20059;-51
2023/10/08 08:27:00;;;;;;;25.33;10.35;;;;;;;17.72;44.30;97810.22;10405640;28;20416;-50
2023/10/08 08:32:04;;;;;;;20.92;9.27;;;;;;;18.18;44.02;97784.41;10404868;28;20119;-48
2023/10/08 08:37:03;;;;;;;17.20;9.90;;;;;;;18.74;42.90;97792.25;10410655;28;20106;-49
2023/10/08 08:42:04;;;;;;;20.98;9.95;;;;;;;19.28;42.47;97772.00;10413181;28;20107;-51
2023/10/08 08:47:04;;;;;;;22.85;11.60;;;;;;;19.87;41.88;97771.59;10440430;28;20068;-48
2023/10/08 08:52:04;;;;;;;20.27;10.07;;;;;;;20.31;41.46;97768.13;10453860;28;20515;-48
2023/10/08 08:57:04;;;;;;;17.98;8.88;;;;;;;20.74;40.17;97741.81;10453184;28;20094;-49
2023/10/08 09:02:07;;;;;;;13.30;7.93;;;;;;;21.40;38.18;97757.44;10453671;28;20093;-50
2023/10/08 09:07:07;;;;;;;12.65;6.15;;;;;;;21.99;34.79;97753.88;10452892;28;20055;-50
2023/10/08 09:12:10;;;;;;;11.90;4.60;;;;;;;22.46;33.69;97755.16;10452993;28;20143;-48
2023/10/08 09:17:09;;;;;;;9.32;4.55;;;;;;;22.82;33.54;97741.09;10453510;28;20478;-50
2023/10/08 09:22:11;;;;;;;7.50;4.07;;;;;;;23.16;32.03;97738.41;10452453;28;20107;-51
2023/10/08 09:27:14;;;;;;;7.30;3.83;;;;;;;23.43;31.25;97729.94;10452153;28;20059;-49
2023/10/08 09:32:13;;;;;;;9.45;3.80;;;;;;;23.64;30.66;97720.84;10452683;28;20067;-51
2023/10/08 09:37:13;;;;;;;8.88;4.20;;;;;;;23.97;29.13;97730.53;10451495;28;20433;-50
2023/10/08 09:42:13;;;;;;;12.48;4.53;;;;;;;24.40;29.51;97729.94;10451317;28;20128;-52
2023/10/08 09:47:17;;;;;;;10.77;4.63;;;;;;;24.63;28.40;97704.72;10419353;28;20067;-51
2023/10/08 09:52:23;;;;;;;9.23;4.28;;;;;;;25.05;27.95;97703.13;10409977;28;20154;-51
2023/10/08 09:57:26;;;;;;;7.97;4.57;;;;;;;25.01;27.40;97683.91;10409776;28;20063;-49
2023/10/08 10:02:27;;;;;;;12.35;4.07;;;;;;;25.41;27.29;97708.00;10410039;28;20048;-51
2023/10/08 10:07:27;;;;;;;8.43;4.65;;;;;;;25.58;27.45;97704.31;10409394;28;20096;-49
2023/10/08 10:12:28;;;;;;;16.27;4.82;;;;;;;25.74;27.67;97688.28;10409395;28;20068;-51
2023/10/08 10:17:30;;;;;;;8.18;3.88;;;;;;;25.78;28.34;97684.44;10409436;28;20056;-49
2023/10/08 10:22:34;;;;;;;10.05;4.63;;;;;;;25.77;27.21;97673.94;10409420;28;20048;-48
2023/10/08 10:27:34;;;;;;;10.48;4.35;;;;;;;25.85;27.86;97676.94;10410001;28;20067;-52
2023/10/08 10:32:34;;;;;;;7.15;3.78;;;;;;;26.03;27.71;97651.81;10409869;28;20064;-49
2023/10/08 10:38:18;;;;;;;7.45;3.83;;;;;;;26.28;27.61;97640.44;10427270;28;20568;-50
2023/10/08 10:43:01;;;;;;;10.68;4.10;;;;;;;26.58;27.52;97626.00;10449288;28;20491;-52
2023/10/08 10:48:11;;;;;;;10.80;4.55;;;;;;;26.78;27.32;97622.84;10488393;28;20058;-50
2023/10/08 10:53:11;;;;;;;10.77;4.35;;;;;;;26.96;26.29;97612.75;10453003;28;20482;-51
2023/10/08 10:58:11;;;;;;;15.35;4.28;;;;;;;27.39;26.49;97600.88;10452155;28;20062;-51
2023/10/08 11:03:17;;;;;;;8.48;4.70;;;;;;;27.72;25.65;97596.75;10451945;28;20050;-51
2023/10/08 11:08:18;;;;;;;8.30;4.18;;;;;;;28.26;25.14;97582.94;10452087;28;20498;-48
2023/10/08 11:13:19;;;;;;;9.60;4.03;;;;;;;28.09;25.66;97477.53;10489677;28;20613;-49
2023/10/08 11:18:23;;;;;;;8.73;3.78;;;;;;;28.64;23.45;97574.69;10493428;28;20076;-48
2023/10/08 11:23:35;;;;;;;13.38;4.68;;;;;;;28.03;23.98;97573.97;10491124;28;20055;-48
2023/10/08 11:28:41;;;;;;;10.02;3.92;;;;;;;28.30;24.60;97567.56;10464220;28;20074;-47
2023/10/08 11:33:42;;;;;;;12.10;3.72;;;;;;;28.41;23.89;97556.94;10446931;28;20115;-51
2023/10/08 11:38:42;;;;;;;11.55;4.20;;;;;;;28.35;24.56;97566.25;10448169;28;20048;-49
2023/10/08 11:43:44;;;;;;;9.45;3.30;;;;;;;27.74;24.87;97569.00;10447452;28;20107;-48
2023/10/08 11:48:46;;;;;;;11.32;3.50;;;;;;;27.41;25.85;97558.97;10447284;28;20083;-48
2023/10/08 11:53:45;;;;;;;8.98;2.83;;;;;;;26.55;27.71;97557.88;10447438;28;20107;-51
2023/10/08 11:58:44;;;;;;;18.75;3.45;;;;;;;26.51;27.68;97550.22;10447117;28;20038;-51
2023/10/08 12:03:49;;;;;;;13.73;3.53;;;;;;;26.30;27.62;97564.06;10446804;28;20113;-49
2023/10/08 12:08:53;;;;;;;15.35;3.80;;;;;;;25.91;28.42;97482.47;10491837;28;20107;-51
2023/10/08 12:13:52;;;;;;;12.05;3.58;;;;;;;26.56;28.13;97564.91;10469590;28;20075;-51
2023/10/08 12:18:58;;;;;;;11.70;3.10;;;;;;;26.49;28.25;97558.31;10455287;28;20106;-51
2023/10/08 12:23:58;;;;;;;17.55;3.83;;;;;;;26.20;28.11;97543.50;10455028;28;20499;-49
2023/10/08 12:28:57;;;;;;;14.82;3.80;;;;;;;26.14;28.39;97582.81;10455088;28;20059;-51
2023/10/08 12:34:00;;;;;;;14.60;3.28;;;;;;;26.17;28.52;97544.53;10454303;28;20036;-51
2023/10/08 12:38:59;;;;;;;12.18;3.45;;;;;;;26.22;28.55;97545.09;10454176;28;20068;-51
2023/10/08 12:43:58;;;;;;;10.43;2.47;;;;;;;25.92;28.61;97547.97;10456628;28;20055;-50
2023/10/08 12:49:01;;;;;;;12.27;3.50;;;;;;;26.09;28.79;97530.88;10494495;28;20038;-50
2023/10/08 12:54:06;;;;;;;18.67;3.80;;;;;;;26.09;28.95;97530.88;10495807;28;20058;-51
2023/10/08 12:59:08;;;;;;;12.10;3.40;;;;;;;25.97;28.76;97524.56;10496199;27;20067;-51
2023/10/08 13:04:07;;;;;;;16.75;4.05;;;;;;;25.73;28.97;97529.72;10495144;28;20149;-48
2023/10/08 13:09:15;;;;;;;18.77;4.93;;;;;;;25.80;29.26;97525.72;10495001;28;20028;-48
2023/10/08 13:14:14;;;;;;;17.77;3.90;;;;;;;25.78;29.02;97521.47;10494802;28;20062;-51
2023/10/08 13:19:13;;;;;;;14.80;3.38;;;;;;;25.76;29.24;97539.31;10493431;28;20032;-50
2023/10/08 13:24:12;;;;;;;15.07;3.97;;;;;;;26.03;28.92;97518.84;10494333;28;20506;-51
2023/10/08 13:29:11;;;;;;;17.60;3.95;;;;;;;26.17;28.53;97510.78;10494087;28;20051;-49
2023/10/08 13:34:12;;;;;;;19.33;4.40;;;;;;;26.29;28.56;97514.44;10493826;28;20036;-51
2023/10/08 13:39:18;;;;;;;13.75;3.55;;;;;;;26.43;27.84;97518.81;10493902;28;20067;-49
2023/10/08 13:44:18;;;;;;;17.08;4.25;;;;;;;26.70;28.27;97513.41;10488661;28;20074;-48
2023/10/08 13:49:18;;;;;;;15.50;3.60;;;;;;;27.14;27.35;97506.75;10451047;28;20062;-51
2023/10/08 13:54:19;;;;;;;15.05;3.45;;;;;;;27.24;26.86;97500.72;10451664;28;20509;-51
2023/10/08 13:59:18;;;;;;;13.50;3.13;;;;;;;26.69;27.47;97540.09;10450952;28;20058;-50
2023/10/08 14:04:19;;;;;;;12.32;3.72;;;;;;;26.35;26.94;97524.69;10451392;28;20039;-52
2023/10/08 14:09:30;;;;;;;17.30;3.88;;;;;;;26.42;26.91;97535.75;10449988;28;20145;-51
2023/10/08 14:14:29;;;;;;;13.15;3.15;;;;;;;26.34;27.21;97522.13;10450703;28;20068;-48
2023/10/08 14:19:35;;;;;;;15.27;4.22;;;;;;;26.50;26.70;97532.56;10450277;28;20020;-48
2023/10/08 14:24:37;;;;;;;10.32;3.38;;;;;;;26.64;26.57;97534.25;10449863;28;20485;-49
2023/10/08 14:29:43;;;;;;;12.73;2.97;;;;;;;26.21;26.77;97518.63;10450132;28;20082;-51
2023/10/08 14:45:13;;;;;;;18.58;4.75;;;;;;;25.85;27.44;97559.97;10478921;28;20063;-48
2023/10/08 14:50:16;;;;;;;11.98;3.88;;;;;;;25.40;27.67;97524.81;10449694;28;20063;-51
2023/10/08 14:55:16;;;;;;;12.15;3.67;;;;;;;25.47;27.66;97573.94;10448618;28;20142;-51
2023/10/08 15:00:15;;;;;;;10.50;3.22;;;;;;;25.21;28.00;97571.13;10448925;28;20476;-50
2023/10/08 15:05:14;;;;;;;10.10;3.90;;;;;;;24.90;27.98;97581.00;10448932;28;20510;-48
2023/10/08 15:10:13;;;;;;;9.20;2.92;;;;;;;24.57;28.39;97557.38;10448309;28;20430;-53
2023/10/08 15:15:14;;;;;;;13.75;3.55;;;;;;;24.61;28.56;97601.31;10471305;28;20371;-49
2023/10/08 15:20:16;;;;;;;8.82;3.63;;;;;;;24.67;28.33;97608.09;10448580;28;20541;-51
2023/10/08 15:25:17;;;;;;;12.95;3.88;;;;;;;24.73;28.55;97623.66;10449234;28;20074;-49
2023/10/08 15:30:20;;;;;;;13.70;3.20;;;;;;;24.56;28.71;97627.28;10490900;28;20468;-48
2023/10/08 15:35:20;;;;;;;12.70;3.60;;;;;;;24.35;28.79;97637.38;10492726;28;20078;-49
2023/10/08 15:40:19;;;;;;;10.45;3.05;;;;;;;24.10;28.76;97643.25;10492624;28;20073;-48
2023/10/08 15:45:23;;;;;;;11.63;3.92;;;;;;;24.11;29.29;97644.09;10477774;28;20066;-49
2023/10/08 15:50:24;;;;;;;10.70;3.70;;;;;;;23.89;29.34;97640.00;10492704;28;20490;-50
2023/10/08 15:55:25;;;;;;;14.52;5.25;;;;;;;23.82;29.68;97628.91;10492018;28;20067;-47
2023/10/08 16:00:24;;;;;;;14.25;4.32;;;;;;;23.92;29.84;97661.03;10492033;28;20070;-49
2023/10/08 16:05:23;;;;;;;13.88;4.43;;;;;;;23.70;30.06;97668.47;10492218;28;20108;-48
2023/10/08 16:10:22;;;;;;;12.43;4.20;;;;;;;23.39;30.75;97696.59;10492143;28;20039;-48
2023/10/08 16:15:21;;;;;;;17.92;4.68;;;;;;;23.45;30.24;97698.94;10492628;28;20055;-49
2023/10/08 16:20:21;;;;;;;13.93;3.78;;;;;;;23.46;30.81;97690.03;10493024;28;20557;-50
2023/10/08 16:25:21;;;;;;;11.65;4.40;;;;;;;23.53;30.63;97691.44;10489100;28;20051;-51
2023/10/08 16:30:25;;;;;;;13.40;4.30;;;;;;;23.34;30.77;97696.00;10487682;28;20055;-50
2023/10/08 16:35:24;;;;;;;11.60;4.25;;;;;;;23.31;31.12;97709.41;10488202;28;20134;-51
2023/10/08 16:40:23;;;;;;;11.57;3.42;;;;;;;23.17;31.36;97720.72;10446242;28;20152;-49
2023/10/08 16:45:23;;;;;;;15.45;3.30;;;;;;;23.01;31.94;97729.47;10459339;28;20055;-49
2023/10/08 16:50:22;;;;;;;15.38;5.43;;;;;;;23.04;31.66;97730.25;10488142;28;20065;-51
2023/10/08 16:55:21;;;;;;;16.92;5.78;;;;;;;22.97;32.12;97735.00;10491935;28;20020;-51
2023/10/08 17:00:20;;;;;;;14.18;4.90;;;;;;;22.78;32.41;97733.28;10495792;28;20023;-48
2023/10/08 17:05:19;;;;;;;19.63;6.53;;;;;;;22.82;32.70;97752.50;10492819;28;20485;-50
2023/10/08 17:10:18;;;;;;;16.63;4.85;;;;;;;22.82;32.62;97762.25;10494244;28;20571;-51
2023/10/08 17:15:18;;;;;;;14.70;4.68;;;;;;;22.51;33.15;97748.72;10494349;28;20558;-51
2023/10/08 17:20:17;;;;;;;16.08;5.70;;;;;;;22.48;33.35;97753.28;10494750;28;20481;-51
2023/10/08 17:25:16;;;;;;;14.23;5.78;;;;;;;22.44;33.58;97775.56;10494322;28;20055;-50
2023/10/08 17:30:19;;;;;;;16.40;5.53;;;;;;;22.26;34.50;97788.72;10494138;28;20092;-48
2023/10/08 17:35:18;;;;;;;17.20;5.95;;;;;;;22.06;34.82;97800.25;10493076;28;20066;-49
2023/10/08 17:40:19;;;;;;;18.25;7.43;;;;;;;21.82;35.32;97810.09;10493102;28;20114;-51
2023/10/08 17:45:22;;;;;;;24.30;7.88;;;;;;;21.54;36.22;97803.41;10480750;28;20112;-50
2023/10/08 17:50:21;;;;;;;16.15;7.00;;;;;;;21.23;37.22;97808.34;10451655;28;20059;-51
2023/10/08 17:55:20;;;;;;;13.05;6.18;;;;;;;21.04;37.69;97814.38;10451138;28;20052;-50
2023/10/08 18:00:21;;;;;;;15.02;6.18;;;;;;;20.84;38.29;97819.63;10451498;28;20032;-51
2023/10/08 18:05:21;;;;;;;12.27;6.00;;;;;;;20.63;38.95;97811.69;10449563;28;20107;-48
2023/10/08 18:10:23;;;;;;;19.65;7.03;;;;;;;20.43;39.43;97827.44;10451304;28;20165;-49
2023/10/08 18:15:28;;;;;;;22.15;7.10;;;;;;;20.32;39.64;97824.34;10450313;28;20071;-48
2023/10/08 18:20:34;;;;;;;18.88;6.47;;;;;;;20.08;40.25;97813.84;10450391;28;20070;-49
2023/10/08 18:25:34;;;;;;;16.63;5.70;;;;;;;20.00;40.74;97821.16;10452741;28;20060;-48
2023/10/08 18:30:33;;;;;;;21.52;6.95;;;;;;;19.78;41.46;97844.81;10452935;28;20072;-51
2023/10/08 18:35:32;;;;;;;16.67;5.78;;;;;;;19.75;41.47;97851.03;10493626;28;20027;-49
2023/10/08 18:40:40;;;;;;;15.77;6.07;;;;;;;18.63;41.99;97694.47;10494890;28;20055;-51
2023/10/08 18:45:43;;;;;;;15.32;5.90;;;;;;;19.53;42.34;97868.47;10479807;28;20062;-52
2023/10/08 18:50:44;;;;;;;14.80;5.72;;;;;;;19.37;43.77;97861.13;10452422;28;20525;-50
2023/10/08 18:55:43;;;;;;;15.27;6.60;;;;;;;19.30;44.29;97854.38;10452682;28;20055;-52
2023/10/08 19:00:42;;;;;;;15.45;6.00;;;;;;;19.17;43.96;97869.69;10451946;28;20031;-49
2023/10/08 19:05:41;;;;;;;14.07;6.22;;;;;;;19.23;44.08;97887.91;10452141;28;20024;-50
2023/10/08 19:10:40;;;;;;;14.88;5.63;;;;;;;19.17;43.93;97900.41;10493691;28;20321;-49
2023/10/08 19:15:39;;;;;;;17.02;6.20;;;;;;;19.21;44.53;97899.41;10493222;28;20059;-50
2023/10/08 19:20:38;;;;;;;16.15;5.93;;;;;;;18.99;45.33;97880.84;10492331;28;20119;-48
2023/10/08 19:25:39;;;;;;;13.43;6.13;;;;;;;19.07;45.34;97902.50;10491093;28;20028;-49
2023/10/08 19:30:41;;;;;;;17.67;5.75;;;;;;;19.08;45.50;97905.97;10488957;28;20075;-51
2023/10/08 19:35:44;;;;;;;21.92;5.72;;;;;;;19.10;45.68;97917.31;10490075;28;20107;-49
2023/10/08 19:40:43;;;;;;;16.15;5.22;;;;;;;19.15;46.04;97924.13;10489307;28;20059;-52
2023/10/08 19:45:42;;;;;;;17.83;5.47;;;;;;;19.31;45.84;97927.13;10472544;28;20103;-52
2023/10/08 19:50:42;;;;;;;15.05;4.82;;;;;;;19.46;46.07;97923.09;10447733;28;20059;-52
2023/10/08 19:55:52;;;;;;;15.80;4.38;;;;;;;19.62;45.83;97923.47;10444757;28;20511;-52
2023/10/08 20:00:51;;;;;;;13.55;3.75;;;;;;;19.71;45.88;97946.00;10447318;28;20059;-50
2023/10/08 20:05:50;;;;;;;12.40;5.05;;;;;;;19.90;45.41;97938.31;10446919;28;20032;-52
2023/10/08 20:10:50;;;;;;;13.68;4.18;;;;;;;20.02;45.07;97943.13;10472938;28;20083;-52
2023/10/08 20:15:52;;;;;;;14.10;3.53;;;;;;;20.12;44.52;97934.00;10488775;28;20577;-51
2023/10/08 20:20:56;;;;;;;18.10;4.57;;;;;;;20.23;44.36;97938.84;10486657;28;20212;-49
2023/10/08 20:25:57;;;;;;;16.35;3.92;;;;;;;20.14;44.06;97955.00;10488608;28;20557;-49
2023/10/08 20:30:56;;;;;;;13.02;3.58;;;;;;;19.99;43.99;97898.47;10494078;28;20082;-48
2023/10/08 20:35:56;;;;;;;15.98;4.47;;;;;;;20.33;43.75;97952.53;10495290;28;20509;-48
2023/10/08 20:40:56;;;;;;;17.30;5.70;;;;;;;20.41;43.56;97959.28;10496217;28;20492;-48
2023/10/08 20:45:55;;;;;;;12.82;3.55;;;;;;;20.39;43.34;97965.50;10478629;28;20115;-48
2023/10/08 20:50:56;;;;;;;8.75;3.05;;;;;;;20.39;42.99;97957.59;10454285;28;20063;-49
2023/10/08 20:55:55;;;;;;;8.27;2.58;;;;;;;19.57;43.30;97875.41;10453565;28;20059;-50
2023/10/08 21:00:56;;;;;;;8.27;2.28;;;;;;;20.34;42.88;97970.94;10454134;28;20083;-52
2023/10/08 21:05:56;;;;;;;5.35;2.22;;;;;;;20.36;42.87;97978.81;10453296;28;20060;-51
2023/10/08 21:10:56;;;;;;;6.43;2.33;;;;;;;20.63;42.22;97976.94;10453237;28;20051;-50
2023/10/08 21:15:57;;;;;;;11.98;1.88;;;;;;;20.44;42.34;97966.22;10453205;28;20074;-51
2023/10/08 21:20:56;;;;;;;7.03;2.30;;;;;;;20.58;42.32;97966.56;10495108;28;20062;-51
2023/10/08 21:25:55;;;;;;;9.02;2.53;;;;;;;20.68;42.19;97975.84;10494516;28;20027;-52
2023/10/08 21:30:55;;;;;;;9.55;2.30;;;;;;;20.73;42.26;97977.44;10494589;28;20079;-49
2023/10/08 21:35:54;;;;;;;10.52;2.75;;;;;;;20.61;42.50;97973.47;10494324;28;20063;-52
2023/10/08 21:40:58;;;;;;;9.93;2.63;;;;;;;20.81;42.21;97981.50;10491180;28;20130;-49
2023/10/08 21:45:58;;;;;;;9.35;2.05;;;;;;;20.69;42.40;98009.19;10474784;28;20063;-49
2023/10/08 21:50:56;;;;;;;6.80;2.22;;;;;;;20.36;42.84;98016.56;10451397;28;20400;-51
2023/10/08 21:55:55;;;;;;;12.40;2.60;;;;;;;20.35;42.69;98029.78;10451239;28;20032;-51
2023/10/08 22:01:09;;;;;;;8.48;2.33;;;;;;;20.46;42.56;98027.66;10451289;28;20059;-52
2023/10/08 22:06:08;;;;;;;13.93;2.20;;;;;;;20.45;42.51;98025.94;10491422;28;20058;-49
2023/10/08 22:11:07;;;;;;;5.80;2.25;;;;;;;20.60;42.32;98011.31;10490870;28;20106;-50
2023/10/08 22:16:19;;;;;;;6.90;2.50;;;;;;;20.56;42.43;98015.00;10490646;28;20059;-49
2023/10/08 22:21:19;;;;;;;9.25;2.40;;;;;;;20.69;42.41;98018.91;10489820;28;20075;-51
2023/10/08 22:26:23;;;;;;;6.30;2.20;;;;;;;20.58;42.88;98024.56;10491979;28;20398;-50
2023/10/08 22:31:23;;;;;;;6.70;2.30;;;;;;;20.24;43.46;98003.84;10491883;28;20074;-50
2023/10/08 22:41:35;;;;;;;10.88;2.40;;;;;;;20.03;44.36;98060.78;10491353;28;20143;-47
2023/10/08 22:46:41;;;;;;;6.85;3.03;;;;;;;19.87;44.93;98060.44;10467391;28;20060;-48
2023/10/08 22:51:41;;;;;;;9.02;2.47;;;;;;;19.73;45.25;98068.78;10491232;28;20466;-48
2023/10/08 22:56:41;;;;;;;7.45;2.47;;;;;;;19.61;45.83;98090.25;10491707;28;20071;-48
2023/10/08 23:01:42;;;;;;;6.55;2.92;;;;;;;19.34;46.29;98087.53;10491027;28;20473;-47
2023/10/08 23:06:41;;;;;;;8.27;2.50;;;;;;;19.21;46.32;98086.22;10490794;28;20502;-48
2023/10/08 23:11:42;;;;;;;11.57;2.67;;;;;;;19.17;46.40;98093.31;10490128;28;20552;-50
2023/10/08 23:16:41;;;;;;;7.95;3.17;;;;;;;19.20;46.21;98116.03;10490285;28;20055;-50
2023/10/08 23:21:44;;;;;;;9.60;2.67;;;;;;;18.93;46.39;98123.84;10490353;28;20092;-50
2023/10/08 23:26:44;;;;;;;10.60;2.67;;;;;;;18.72;46.34;98137.59;10493712;28;20440;-50
2023/10/08 23:31:43;;;;;;;10.63;2.58;;;;;;;18.44;46.83;98098.03;10492860;28;20067;-50
2023/10/08 23:36:42;;;;;;;12.15;2.70;;;;;;;18.56;46.61;98114.31;10492198;28;20100;-50
2023/10/08 23:42:01;;;;;;;7.90;2.50;;;;;;;18.43;47.28;98131.31;10492866;28;20051;-51
2023/10/08 23:47:09;;;;;;;14.65;2.50;;;;;;;18.30;47.35;98122.06;10465971;28;20058;-50
2023/10/08 23:52:09;;;;;;;6.82;2.65;;;;;;;18.04;47.99;98110.44;10451124;28;20111;-50
2023/10/08 23:57:18;;;;;;;5.68;2.88;;;;;;;18.08;48.22;98112.09;10450511;28;20054;-47
